Time;durP1;ratioP1;P1;durP2;ratioP2;P2;SDS_P1;SDS_P2;PMS_P1;PMS_P2;Temp;Humidity;BMP_temperature;BMP_pressure;BME280_temperature;BME280_humidity;BME280_pressure;Samples;Min_cycle;Max_cycle;Signal;HPM_P1;HPM_P2
2022/10/11 00:00:42;;;;;;;7.03;2.30;;;;;;;11.68;40.74;101994.13;5080273;27;20131;-75
2022/10/11 00:03:10;;;;;;;5.22;2.20;;;;;;;11.66;41.08;101994.22;5091756;28;20052;-75
2022/10/11 00:05:39;;;;;;;4.95;2.50;;;;;;;11.62;40.87;101998.19;5070432;28;20048;-74
2022/10/11 00:08:08;;;;;;;6.13;2.13;;;;;;;11.60;40.95;102002.88;5101804;27;20031;-74
2022/10/11 00:10:36;;;;;;;5.25;2.50;;;;;;;11.56;40.93;101998.59;5113154;27;20043;-75
2022/10/11 00:13:06;;;;;;;5.32;2.50;;;;;;;11.53;41.10;102006.19;5105926;27;20141;-74
2022/10/11 00:15:39;;;;;;;4.93;2.33;;;;;;;11.50;41.37;102010.03;5095127;27;20293;-74
2022/10/11 00:18:07;;;;;;;6.35;2.90;;;;;;;11.46;40.99;102003.03;5124981;27;20050;-75
2022/10/11 00:20:35;;;;;;;4.78;2.28;;;;;;;11.46;41.02;102011.25;5079392;27;20131;-75
2022/10/11 00:23:03;;;;;;;4.85;2.15;;;;;;;11.43;40.86;102010.59;5103475;27;20069;-75
2022/10/11 00:25:34;;;;;;;7.60;3.33;;;;;;;11.42;41.11;102014.31;5090617;28;20042;-74
2022/10/11 00:28:04;;;;;;;6.70;2.63;;;;;;;11.37;41.10;102022.88;5098075;28;20039;-74
2022/10/11 00:30:32;;;;;;;6.68;2.72;;;;;;;11.32;41.19;102017.72;5085777;28;20038;-75
2022/10/11 00:33:00;;;;;;;5.57;3.20;;;;;;;11.28;41.09;102013.47;5103209;27;20561;-75
2022/10/11 00:35:28;;;;;;;5.88;2.50;;;;;;;11.24;41.41;102022.00;5087647;28;20385;-75
2022/10/11 00:37:57;;;;;;;6.18;2.72;;;;;;;11.19;41.57;102016.88;5122898;27;20553;-75
2022/10/11 00:40:25;;;;;;;5.10;2.70;;;;;;;11.16;41.62;102022.56;5111432;27;20561;-74
2022/10/11 00:42:54;;;;;;;5.45;2.88;;;;;;;11.14;41.28;102023.66;5116073;27;20050;-74
2022/10/11 00:45:59;;;;;;;5.65;2.58;;;;;;;11.09;42.02;102023.97;5081451;27;20051;-74
2022/10/11 00:48:32;;;;;;;6.15;2.70;;;;;;;11.04;41.71;102028.91;5101210;27;20127;-74
2022/10/11 00:51:04;;;;;;;;;;;;;;;10.74;42.16;102031.06;5127957;27;20039;-74
2022/10/11 00:53:33;;;;;;;4.85;2.40;;;;;;;10.92;41.34;102027.03;5117008;27;20399;-74
2022/10/11 00:56:05;;;;;;;6.55;2.83;;;;;;;10.94;41.52;102031.44;5102464;28;20067;-75
2022/10/11 00:58:36;;;;;;;7.88;2.67;;;;;;;10.88;41.71;102033.72;5093719;28;20092;-74
2022/10/11 01:01:05;;;;;;;6.60;2.65;;;;;;;10.84;41.58;102037.66;5116023;27;20584;-74
2022/10/11 01:03:35;;;;;;;6.45;2.67;;;;;;;10.82;41.51;102040.50;5116806;27;20036;-75
2022/10/11 01:06:04;;;;;;;4.82;2.60;;;;;;;10.78;41.75;102043.56;5103572;28;20688;-74
2022/10/11 01:08:32;;;;;;;5.55;2.42;;;;;;;10.73;41.89;102038.41;5108417;27;20061;-74
2022/10/11 01:11:00;;;;;;;6.78;2.65;;;;;;;10.70;41.32;102052.31;5117725;27;20069;-74
2022/10/11 01:13:43;;;;;;;4.82;2.58;;;;;;;10.69;42.21;102041.47;5118132;27;20073;-74
2022/10/11 01:16:15;;;;;;;4.82;2.40;;;;;;;10.65;41.65;102049.00;5104701;27;20055;-74
2022/10/11 01:18:49;;;;;;;5.25;2.30;;;;;;;10.64;42.38;102049.13;5109654;27;20038;-74
2022/10/11 01:21:33;;;;;;;5.78;2.70;;;;;;;10.62;42.21;102042.88;5109102;27;20542;-74
2022/10/11 01:24:26;;;;;;;4.47;2.20;;;;;;;10.57;42.24;102044.06;5120157;27;20057;-74
2022/10/11 01:27:24;;;;;;;5.05;2.40;;;;;;;10.49;42.75;102032.72;5115387;27;20052;-75
2022/10/11 01:30:03;;;;;;;3.58;1.98;;;;;;;10.53;42.31;102047.09;5115780;27;20049;-75
2022/10/11 01:32:38;;;;;;;6.28;2.30;;;;;;;10.50;42.24;102039.97;5098369;28;20047;-74
2022/10/11 01:35:10;;;;;;;6.53;2.15;;;;;;;10.48;42.08;102043.81;5100922;27;20043;-74
2022/10/11 01:37:43;;;;;;;5.47;2.17;;;;;;;10.45;41.91;102047.63;5108434;28;20388;-74
2022/10/11 01:40:17;;;;;;;5.00;2.20;;;;;;;10.45;42.03;102044.88;5072621;28;20055;-74
2022/10/11 01:42:46;;;;;;;5.82;2.17;;;;;;;10.43;41.80;102041.38;5109958;27;20039;-74
2022/10/11 01:45:17;;;;;;;4.75;2.20;;;;;;;10.42;41.95;102047.81;5080078;28;20429;-75
2022/10/11 01:47:46;;;;;;;8.85;2.65;;;;;;;10.41;41.72;102043.31;5092328;28;20051;-74
2022/10/11 01:50:34;;;;;;;6.40;2.33;;;;;;;10.39;42.21;102049.91;5077627;28;20112;-75
2022/10/11 01:53:12;;;;;;;4.45;2.08;;;;;;;10.37;42.23;102046.38;5093234;28;20071;-75
2022/10/11 01:55:49;;;;;;;5.90;2.22;;;;;;;10.35;42.17;102051.97;5106804;28;20130;-74
2022/10/11 01:58:28;;;;;;;5.88;2.22;;;;;;;10.33;42.51;102044.81;5095974;28;20116;-74
2022/10/11 02:01:08;;;;;;;5.22;2.08;;;;;;;10.30;42.37;102050.53;5082660;28;20048;-75
2022/10/11 02:03:47;;;;;;;5.65;1.85;;;;;;;10.28;42.44;102047.88;5094457;27;20054;-74
2022/10/11 02:06:20;;;;;;;5.68;2.13;;;;;;;10.24;42.26;102041.72;5094227;22;20117;-84
2022/10/11 02:08:56;;;;;;;5.18;2.25;;;;;;;10.20;42.37;102045.66;5063465;28;20048;-84
2022/10/11 02:11:27;;;;;;;5.18;2.22;;;;;;;10.19;42.09;102045.78;5046791;28;20052;-85
2022/10/11 02:13:59;;;;;;;4.93;2.08;;;;;;;10.17;41.96;102053.19;5068907;28;20048;-84
2022/10/11 02:16:32;;;;;;;3.78;1.90;;;;;;;10.12;42.09;102056.25;5018460;28;20404;-83
2022/10/11 02:19:08;;;;;;;4.25;1.90;;;;;;;10.11;42.25;102059.09;5036387;28;20111;-85
2022/10/11 02:21:41;;;;;;;4.75;1.92;;;;;;;10.09;42.14;102059.19;5010290;28;20091;-83
2022/10/11 02:24:14;;;;;;;6.88;2.30;;;;;;;10.07;42.34;102060.28;5044350;28;20041;-83
2022/10/11 02:26:47;;;;;;;5.18;2.00;;;;;;;10.03;42.33;102061.44;5009820;28;20071;-83
2022/10/11 02:29:16;;;;;;;3.90;2.00;;;;;;;10.02;41.91;102062.44;5052549;28;20080;-84
2022/10/11 02:31:46;;;;;;;4.80;2.42;;;;;;;10.00;42.04;102067.13;5032684;28;20044;-84
2022/10/11 02:34:20;;;;;;;4.43;1.75;;;;;;;9.99;42.40;102068.13;5026888;28;20462;-84
2022/10/11 02:36:57;;;;;;;5.88;2.20;;;;;;;9.96;42.27;102071.03;5043128;28;20049;-84
2022/10/11 02:39:31;;;;;;;3.70;1.95;;;;;;;9.93;42.01;102072.13;5028787;28;20046;-83
2022/10/11 02:42:04;;;;;;;4.78;2.00;;;;;;;9.90;42.07;102069.59;5049870;28;20415;-83
2022/10/11 02:44:35;;;;;;;;;;;;;;;9.63;42.74;102076.84;5047518;28;20045;-84
2022/10/11 02:47:04;;;;;;;3.38;1.70;;;;;;;9.83;41.98;102081.88;5032394;28;20002;-85
2022/10/11 02:49:34;;;;;;;3.85;1.70;;;;;;;9.84;41.84;102081.81;5046892;28;20458;-85
2022/10/11 02:52:05;;;;;;;5.55;2.05;;;;;;;9.83;42.18;102076.41;5048221;28;20041;-84
2022/10/11 02:54:33;;;;;;;4.30;1.77;;;;;;;9.79;42.20;102083.97;5032814;28;20052;-84
2022/10/11 02:57:01;;;;;;;4.53;1.88;;;;;;;9.77;42.09;102083.19;5036352;28;20044;-84
2022/10/11 02:59:32;;;;;;;4.05;2.08;;;;;;;9.75;41.97;102084.25;5035560;28;20049;-84
2022/10/11 03:02:00;;;;;;;3.97;1.77;;;;;;;9.72;42.39;102084.47;5036737;28;20037;-85
2022/10/11 03:04:28;;;;;;;3.83;1.63;;;;;;;9.70;41.93;102083.69;5033624;28;20048;-84
2022/10/11 03:06:59;;;;;;;3.95;1.65;;;;;;;9.70;42.35;102087.28;5047035;28;20130;-84
2022/10/11 03:09:27;;;;;;;4.05;1.80;;;;;;;9.66;42.10;102093.06;5048968;28;20045;-84
2022/10/11 03:11:54;;;;;;;4.57;2.00;;;;;;;9.65;42.35;102096.78;5036011;28;20041;-85
2022/10/11 03:14:24;;;;;;;4.40;1.83;;;;;;;9.64;42.23;102095.91;5041024;28;20483;-83
2022/10/11 03:16:52;;;;;;;4.13;2.05;;;;;;;9.62;42.27;102097.84;5036919;28;20443;-83
2022/10/11 03:19:20;;;;;;;5.22;2.35;;;;;;;9.58;42.19;102099.00;5047235;28;20045;-84
2022/10/11 03:21:48;;;;;;;4.38;1.70;;;;;;;9.57;42.28;102097.28;5044497;28;20087;-84
2022/10/11 03:24:17;;;;;;;7.05;2.05;;;;;;;9.58;42.07;102106.31;5039030;28;20488;-84
2022/10/11 03:26:47;;;;;;;5.00;1.90;;;;;;;9.54;41.94;102097.44;5036955;28;20044;-84
2022/10/11 03:29:15;;;;;;;3.85;1.88;;;;;;;9.53;42.14;102108.47;5048052;28;20059;-84
2022/10/11 03:31:42;;;;;;;4.80;1.70;;;;;;;9.51;42.17;102113.16;5007587;28;20049;-84
2022/10/11 03:34:10;;;;;;;5.05;2.00;;;;;;;9.49;41.96;102113.28;5035032;28;20049;-83
2022/10/11 03:36:38;;;;;;;7.95;2.10;;;;;;;9.49;42.37;102115.13;5041281;28;20545;-83
2022/10/11 03:39:06;;;;;;;5.40;2.10;;;;;;;9.45;42.11;102117.16;5030061;28;20092;-83
2022/10/11 03:41:36;;;;;;;5.68;2.30;;;;;;;9.45;42.22;102122.63;5035138;28;20231;-83
2022/10/11 03:44:04;;;;;;;4.00;1.98;;;;;;;9.40;42.02;102117.47;5038416;28;20076;-83
2022/10/11 03:46:38;;;;;;;5.18;2.10;;;;;;;9.41;42.39;102118.34;5028888;28;20048;-83
2022/10/11 03:49:44;;;;;;;5.97;2.15;;;;;;;9.38;42.54;102116.69;5035150;28;20095;-83
2022/10/11 04:03:50;;;;;;;4.18;2.00;;;;;;;9.19;42.72;102123.34;5045666;28;20063;-82
2022/10/11 04:49:09;;;;;;;7.68;3.03;;;;;;;8.59;45.12;102158.81;4859507;29;20080;-83
2022/10/11 04:51:42;;;;;;;8.73;3.47;;;;;;;8.60;43.96;102160.56;4860031;29;20057;-82
2022/10/11 04:54:16;;;;;;;9.38;3.55;;;;;;;8.63;44.28;102160.41;4860942;29;20094;-82
2022/10/11 04:56:50;;;;;;;8.13;3.70;;;;;;;8.61;44.46;102160.50;4917036;28;20065;-82
2022/10/11 04:59:21;;;;;;;9.10;3.72;;;;;;;8.64;44.22;102170.34;5026243;28;20044;-83
2022/10/11 05:17:57;;;;;;;6.50;3.17;;;;;;;8.59;45.07;102176.06;5045420;28;20040;-82
2022/10/11 05:20:26;;;;;;;7.78;3.90;;;;;;;8.63;44.94;102177.66;5024568;28;20076;-83
2022/10/11 05:35:59;;;;;;;8.13;3.45;;;;;;;8.66;46.47;102190.25;5027684;28;20697;-83
2022/10/11 05:38:50;;;;;;;8.70;3.70;;;;;;;8.70;46.77;102192.69;5026459;28;20045;-83
2022/10/11 05:41:20;;;;;;;6.07;3.97;;;;;;;8.68;45.40;102188.28;5034593;28;20045;-83
2022/10/11 05:43:48;;;;;;;6.30;3.58;;;;;;;8.71;45.26;102197.19;5031434;28;20040;-84
2022/10/11 05:46:16;;;;;;;6.25;3.50;;;;;;;8.73;45.79;102197.13;5036944;28;20096;-85
2022/10/11 05:48:44;;;;;;;6.22;3.45;;;;;;;8.74;45.47;102198.88;5038595;28;20055;-83
2022/10/11 05:51:13;;;;;;;7.53;3.75;;;;;;;8.77;45.86;102200.53;5013290;28;20060;-83
2022/10/11 05:53:41;;;;;;;7.63;4.07;;;;;;;8.77;45.76;102200.53;5022570;28;20280;-85
2022/10/11 05:56:20;;;;;;;6.60;3.92;;;;;;;8.81;47.02;102208.47;5034068;28;20041;-85
2022/10/11 05:58:49;;;;;;;10.20;3.97;;;;;;;8.79;45.93;102212.25;5040043;28;20516;-85
2022/10/11 06:01:29;;;;;;;6.53;3.75;;;;;;;8.81;46.13;102215.75;5048046;28;20061;-84
2022/10/11 06:03:57;;;;;;;6.03;3.80;;;;;;;8.81;46.21;102216.66;5046325;28;20090;-84
2022/10/11 06:06:26;;;;;;;7.20;3.90;;;;;;;8.86;46.30;102219.09;5033320;28;20125;-84
2022/10/11 06:08:55;;;;;;;5.45;3.85;;;;;;;8.86;46.43;102217.25;5028374;28;20053;-84
2022/10/11 06:11:25;;;;;;;6.35;3.70;;;;;;;8.88;46.68;102217.16;5050299;28;20057;-85
2022/10/11 06:13:54;;;;;;;6.97;3.67;;;;;;;8.90;46.41;102226.16;5041054;28;20064;-84
2022/10/11 06:16:28;;;;;;;6.78;3.63;;;;;;;8.94;47.10;102223.13;5001755;28;20457;-84
2022/10/11 07:08:55;;;;;;;5.82;3.70;;;;;;;9.10;46.64;102275.88;4906359;29;20052;-85
2022/10/11 07:11:25;;;;;;;5.78;3.40;;;;;;;9.17;46.70;102280.97;4909232;29;20453;-84
2022/10/11 07:13:58;;;;;;;9.23;4.40;;;;;;;9.19;46.71;102282.63;4909320;29;20572;-85
2022/10/11 07:16:29;;;;;;;12.40;4.72;;;;;;;9.20;46.87;102289.88;4883176;29;20067;-85
2022/10/11 07:18:59;;;;;;;8.30;4.85;;;;;;;9.25;46.64;102292.31;4909959;29;20104;-85
2022/10/11 07:21:29;;;;;;;5.95;4.07;;;;;;;9.26;46.46;102291.34;4908168;29;20055;-85
2022/10/11 07:23:59;;;;;;;9.02;4.60;;;;;;;9.30;47.12;102301.13;4930855;28;20121;-85
2022/10/11 07:26:27;;;;;;;8.20;4.20;;;;;;;9.29;46.93;102299.38;4969319;28;20051;-85
2022/10/11 07:29:04;;;;;;;8.02;4.97;;;;;;;9.30;46.72;102298.41;4963091;28;20549;-84
2022/10/11 07:31:32;;;;;;;7.65;4.72;;;;;;;9.32;46.52;102299.19;4935693;28;20153;-84
2022/10/11 07:34:01;;;;;;;8.07;4.93;;;;;;;9.33;46.65;102300.97;4971094;28;20042;-84
2022/10/11 07:36:29;;;;;;;8.88;5.20;;;;;;;9.35;46.46;102304.47;4972227;28;20061;-83
2022/10/11 07:38:59;;;;;;;8.05;5.20;;;;;;;9.38;46.91;102304.28;4976818;28;20421;-84
2022/10/11 07:41:27;;;;;;;8.68;5.35;;;;;;;9.38;47.12;102312.50;4953313;28;20132;-83
2022/10/11 07:43:55;;;;;;;8.43;4.90;;;;;;;9.40;47.32;102311.47;5028056;28;20094;-83
2022/10/11 07:46:23;;;;;;;10.90;5.72;;;;;;;9.42;47.10;102311.34;5012183;28;20103;-84
2022/10/11 07:48:52;;;;;;;11.07;5.78;;;;;;;9.44;47.04;102313.03;5043434;28;20045;-84
2022/10/11 07:51:21;;;;;;;7.95;5.32;;;;;;;9.48;47.28;102313.75;5000753;28;20617;-84
2022/10/11 07:53:54;;;;;;;7.82;5.38;;;;;;;9.50;47.17;102311.78;5031907;28;20506;-84
2022/10/11 07:56:25;;;;;;;9.50;5.93;;;;;;;9.55;47.85;102311.50;5053497;28;20197;-84
2022/10/11 07:58:59;;;;;;;10.80;6.03;;;;;;;9.57;48.40;102312.31;5050587;28;20099;-84
2022/10/11 08:01:28;;;;;;;9.02;5.45;;;;;;;9.57;47.41;102313.19;5003358;28;20053;-84
2022/10/11 08:03:57;;;;;;;8.98;5.80;;;;;;;9.59;47.24;102316.69;5037622;28;20107;-84
2022/10/11 08:06:30;;;;;;;9.18;5.53;;;;;;;9.63;47.45;102323.75;5020398;23;20525;-82
2022/10/11 08:09:00;;;;;;;8.18;5.70;;;;;;;9.62;47.39;102316.50;5020297;28;20045;-82
2022/10/11 08:11:31;;;;;;;8.80;5.25;;;;;;;9.66;47.68;102315.34;5023692;28;20045;-81
2022/10/11 08:13:59;;;;;;;8.02;5.18;;;;;;;9.67;47.20;102314.38;5038431;28;20053;-81
2022/10/11 08:16:27;;;;;;;10.18;5.95;;;;;;;9.70;47.52;102314.19;5045241;28;20053;-81
2022/10/11 08:18:56;;;;;;;8.70;6.03;;;;;;;9.73;47.27;102324.06;5052740;28;20394;-81
2022/10/11 08:21:25;;;;;;;10.35;6.18;;;;;;;9.74;47.45;102323.09;5069385;28;20052;-82
2022/10/11 08:23:53;;;;;;;10.07;6.07;;;;;;;9.77;47.52;102323.78;5042786;28;20049;-82
2022/10/11 08:26:21;;;;;;;11.07;6.57;;;;;;;9.78;47.33;102327.41;5055710;28;20441;-81
2022/10/11 08:28:50;;;;;;;10.48;6.40;;;;;;;9.82;47.39;102329.84;5086799;28;20045;-81
2022/10/11 08:31:18;;;;;;;11.45;7.03;;;;;;;9.83;47.54;102325.25;5044930;28;20072;-80
2022/10/11 08:33:46;;;;;;;11.70;6.95;;;;;;;9.83;47.29;102331.59;5044649;28;20102;-81
2022/10/11 08:36:14;;;;;;;12.25;7.55;;;;;;;9.84;47.39;102336.09;5040719;28;20044;-81
2022/10/11 08:38:42;;;;;;;10.57;6.55;;;;;;;9.86;47.42;102338.75;5033824;28;20063;-81
2022/10/11 08:41:29;;;;;;;9.88;6.72;;;;;;;9.89;48.47;102334.94;5074315;28;20518;-81
2022/10/11 08:44:10;;;;;;;11.73;6.82;;;;;;;9.91;48.58;102343.91;5068934;28;20045;-81
2022/10/11 08:46:39;;;;;;;9.77;6.75;;;;;;;9.90;47.47;102342.19;5028119;28;20464;-81
2022/10/11 08:49:08;;;;;;;10.73;6.88;;;;;;;9.91;47.76;102343.91;5050804;28;20033;-81
2022/10/11 08:51:42;;;;;;;12.63;7.57;;;;;;;9.95;48.35;102340.91;5051148;28;20525;-81
2022/10/11 08:54:16;;;;;;;13.50;7.53;;;;;;;9.96;47.93;102339.06;5065963;28;20037;-81
2022/10/11 08:56:45;;;;;;;10.32;6.45;;;;;;;9.98;47.88;102343.47;5059451;28;20159;-81
2022/10/11 08:59:28;;;;;;;11.38;7.25;;;;;;;10.02;48.58;102339.56;5049575;28;20037;-81
2022/10/11 09:02:04;;;;;;;12.85;8.02;;;;;;;10.05;48.34;102353.06;5045449;28;20056;-81
2022/10/11 09:04:32;;;;;;;12.15;7.65;;;;;;;10.06;47.67;102353.94;5064454;28;20048;-81
2022/10/11 09:07:10;;;;;;;10.85;7.53;;;;;;;10.10;48.07;102352.75;5045956;28;20083;-81
2022/10/11 09:09:50;;;;;;;12.48;8.38;;;;;;;10.12;48.44;102353.56;5038584;28;20056;-81
2022/10/11 09:12:31;;;;;;;14.15;8.40;;;;;;;10.12;48.03;102348.06;5050331;28;20045;-81
2022/10/11 09:15:20;;;;;;;15.52;8.80;;;;;;;10.14;48.34;102348.88;5053302;28;20609;-81
2022/10/11 09:18:04;;;;;;;12.93;7.95;;;;;;;10.15;48.31;102343.28;5073873;28;20067;-81
2022/10/11 09:20:42;;;;;;;14.20;8.38;;;;;;;10.16;48.08;102344.16;5045885;28;20131;-81
2022/10/11 09:23:23;;;;;;;15.10;9.38;;;;;;;10.19;48.22;102349.44;5060562;28;20136;-82
2022/10/11 09:25:56;;;;;;;17.88;10.40;;;;;;;10.20;48.10;102354.84;5051966;28;20048;-81
2022/10/11 09:28:29;;;;;;;;;;;;;;;9.97;48.79;102349.03;5076137;28;20075;-81
2022/10/11 09:30:59;;;;;;;16.15;9.07;;;;;;;10.18;48.08;102348.56;5047536;28;19929;-81
2022/10/11 09:33:33;;;;;;;16.33;10.10;;;;;;;10.30;47.99;102351.53;5032966;28;20059;-80
2022/10/11 09:36:02;;;;;;;16.65;10.45;;;;;;;10.31;47.85;102353.28;5037370;28;20056;-80
2022/10/11 09:38:40;;;;;;;16.10;10.20;;;;;;;10.35;48.18;102354.84;5030710;28;20159;-80
2022/10/11 09:41:17;;;;;;;17.08;10.75;;;;;;;10.37;48.34;102350.16;5046259;28;20294;-81
2022/10/11 09:43:50;;;;;;;15.82;10.20;;;;;;;10.36;47.79;102345.66;5032778;28;20045;-80
2022/10/11 09:46:22;;;;;;;;;;;;;;;10.12;48.88;102348.06;5029617;28;20516;-81
2022/10/11 09:48:56;;;;;;;16.90;10.48;;;;;;;10.38;47.85;102349.19;5067708;28;20015;-81
2022/10/11 09:51:27;;;;;;;19.02;11.35;;;;;;;10.44;48.11;102346.06;5036783;28;20434;-82
2022/10/11 09:53:59;;;;;;;20.50;11.82;;;;;;;10.47;47.72;102354.97;5085923;28;20063;-81
2022/10/11 09:56:29;;;;;;;21.88;12.95;;;;;;;10.50;47.68;102352.00;5071112;28;20433;-83
2022/10/11 09:59:24;;;;;;;21.00;12.90;;;;;;;10.54;48.52;102352.75;5050236;28;20063;-81
2022/10/11 10:02:21;;;;;;;21.83;13.27;;;;;;;10.56;48.39;102350.78;5058146;28;20049;-81
2022/10/11 10:04:58;;;;;;;22.55;13.07;;;;;;;10.63;48.39;102354.88;5079645;28;20109;-81
2022/10/11 10:07:27;;;;;;;21.75;12.30;;;;;;;10.66;48.23;102362.88;5050713;28;20037;-82
2022/10/11 10:09:55;;;;;;;23.38;13.88;;;;;;;10.70;47.95;102364.47;5061198;28;20050;-81
2022/10/11 10:12:27;;;;;;;22.13;12.63;;;;;;;10.77;48.22;102367.69;5051935;28;20217;-82
2022/10/11 10:15:00;;;;;;;22.95;12.93;;;;;;;10.79;48.46;102365.72;5048504;28;20045;-81
2022/10/11 10:17:29;;;;;;;23.05;13.65;;;;;;;10.85;47.71;102366.22;5062451;28;20094;-82
2022/10/11 10:19:59;;;;;;;21.70;13.18;;;;;;;10.87;48.07;102369.72;5057756;28;20530;-82
2022/10/11 10:22:30;;;;;;;20.70;12.80;;;;;;;10.94;47.80;102362.00;5027972;28;20052;-81
2022/10/11 10:25:02;;;;;;;24.00;13.68;;;;;;;10.98;48.13;102371.75;5058382;28;20064;-81
2022/10/11 10:27:30;;;;;;;22.90;13.15;;;;;;;11.01;48.08;102359.72;5063939;28;20490;-81
2022/10/11 10:30:12;;;;;;;20.85;12.52;;;;;;;11.06;48.17;102365.81;5063093;28;20041;-82
2022/10/11 10:32:49;;;;;;;19.95;12.07;;;;;;;11.09;48.09;102362.84;5049249;28;20443;-82
2022/10/11 10:35:28;;;;;;;22.83;13.50;;;;;;;11.11;47.95;102359.03;5063762;28;20140;-82
2022/10/11 10:38:05;;;;;;;20.48;12.43;;;;;;;11.16;47.94;102356.84;5062946;28;20327;-81
2022/10/11 10:40:40;;;;;;;23.00;13.52;;;;;;;11.18;48.16;102357.63;5071698;28;20036;-81
2022/10/11 10:43:15;;;;;;;24.95;13.90;;;;;;;11.26;47.81;102354.38;5073047;28;20037;-82
2022/10/11 10:46:22;;;;;;;27.30;14.10;;;;;;;11.24;47.75;102357.22;5058627;28;20147;-82
2022/10/11 10:49:04;;;;;;;22.20;12.55;;;;;;;11.33;47.97;102361.19;5050538;28;20098;-82
2022/10/11 10:52:04;;;;;;;22.13;12.75;;;;;;;11.39;47.54;102359.94;5043213;28;20414;-82
2022/10/11 10:54:41;;;;;;;23.02;12.82;;;;;;;11.45;47.70;102356.78;5060111;28;20048;-81
2022/10/11 10:57:16;;;;;;;24.10;13.60;;;;;;;11.49;47.44;102352.81;5056117;28;20048;-82
2022/10/11 11:00:00;;;;;;;22.13;13.00;;;;;;;11.54;47.81;102357.03;5072423;28;20090;-81
2022/10/11 11:02:34;;;;;;;25.90;14.02;;;;;;;11.61;47.25;102354.78;5034525;28;20057;-82
2022/10/11 11:05:20;;;;;;;24.15;14.10;;;;;;;11.69;48.01;102353.28;5063665;28;20671;-81
2022/10/11 11:07:54;;;;;;;22.65;13.82;;;;;;;11.76;47.97;102350.97;5051272;28;20387;-81
2022/10/11 11:10:25;;;;;;;25.60;14.75;;;;;;;11.82;47.73;102336.81;5050196;28;20549;-81
2022/10/11 11:13:08;;;;;;;27.27;16.00;;;;;;;11.94;47.83;102337.84;5035715;28;20132;-81
2022/10/11 11:15:43;;;;;;;25.23;15.50;;;;;;;12.00;48.05;102345.63;5055182;28;20328;-82
2022/10/11 11:18:27;;;;;;;27.25;15.57;;;;;;;12.12;47.84;102339.31;5045420;28;20540;-82
2022/10/11 11:21:14;;;;;;;30.58;15.88;;;;;;;12.22;47.68;102332.16;5066140;28;20036;-82
2022/10/11 11:23:54;;;;;;;28.25;16.20;;;;;;;12.31;47.72;102322.38;5069113;28;20052;-82
2022/10/11 11:26:28;;;;;;;26.65;16.42;;;;;;;12.41;47.79;102327.09;5037852;28;20402;-81
2022/10/11 11:29:06;;;;;;;27.77;16.30;;;;;;;12.53;47.64;102329.97;5053009;28;20052;-82
2022/10/11 11:31:47;;;;;;;24.30;14.40;;;;;;;12.64;47.65;102328.19;5063116;28;20059;-82
2022/10/11 11:34:21;;;;;;;22.17;13.82;;;;;;;12.75;47.88;102325.56;5050381;28;20407;-81
2022/10/11 11:36:56;;;;;;;23.35;14.50;;;;;;;12.87;47.53;102321.88;5032108;28;20037;-82
2022/10/11 11:39:27;;;;;;;24.05;13.98;;;;;;;12.99;47.71;102324.72;5057339;28;20087;-82
2022/10/11 11:41:59;;;;;;;24.95;14.50;;;;;;;13.10;47.27;102317.44;5049299;28;20032;-82
2022/10/11 11:44:31;;;;;;;25.38;14.65;;;;;;;13.22;46.85;102312.88;5034409;28;20045;-82
2022/10/11 11:47:03;;;;;;;25.60;16.00;;;;;;;13.35;46.68;102316.47;5040211;28;20049;-82
2022/10/11 11:49:36;;;;;;;23.58;14.70;;;;;;;13.47;46.58;102317.38;5055976;28;20048;-83
2022/10/11 11:52:11;;;;;;;21.58;13.63;;;;;;;13.57;45.81;102304.69;5021903;28;20110;-80
2022/10/11 11:54:47;;;;;;;25.23;13.45;;;;;;;13.69;45.80;102303.75;5066627;28;20085;-81
2022/10/11 11:57:25;;;;;;;21.33;13.07;;;;;;;13.78;45.20;102302.13;5033398;28;20037;-81
2022/10/11 11:59:59;;;;;;;19.88;12.55;;;;;;;13.88;45.01;102297.66;5033809;28;20080;-79
2022/10/11 12:02:38;;;;;;;22.70;12.95;;;;;;;13.96;44.70;102296.06;5059278;28;20223;-81
2022/10/11 12:05:08;;;;;;;19.80;11.70;;;;;;;14.02;45.34;102287.31;5030338;28;20100;-82
2022/10/11 12:07:50;;;;;;;18.83;11.60;;;;;;;14.13;44.70;102291.09;5054977;28;20057;-82
2022/10/11 12:10:26;;;;;;;19.42;11.98;;;;;;;14.20;44.64;102286.84;5040102;28;20076;-81
2022/10/11 12:13:15;;;;;;;18.38;10.18;;;;;;;14.28;44.23;102285.22;5052691;28;20037;-81
2022/10/11 12:16:09;;;;;;;17.60;9.75;;;;;;;14.37;44.54;102283.59;5053517;28;20044;-82
2022/10/11 12:18:49;;;;;;;13.32;7.32;;;;;;;14.47;43.83;102287.41;5038998;28;20041;-80
2022/10/11 12:21:23;;;;;;;14.95;8.27;;;;;;;14.58;43.56;102292.91;5050896;28;20127;-82
2022/10/11 12:23:53;;;;;;;12.73;7.32;;;;;;;14.68;43.78;102276.50;5033449;28;20127;-82
2022/10/11 12:26:45;;;;;;;11.88;7.30;;;;;;;14.75;43.20;102275.88;5037287;28;20094;-82
2022/10/11 12:29:44;;;;;;;10.80;6.15;;;;;;;14.84;42.77;102268.72;5048543;28;20064;-82
2022/10/11 12:32:49;;;;;;;11.73;5.47;;;;;;;14.98;42.56;102270.31;5054896;28;20049;-82
2022/10/11 12:35:57;;;;;;;10.88;4.72;;;;;;;15.04;42.10;102258.75;5058477;28;20506;-82
2022/10/11 12:38:32;;;;;;;8.07;5.07;;;;;;;15.20;42.06;102259.19;5074343;28;20053;-81
2022/10/11 12:41:48;;;;;;;9.10;4.72;;;;;;;15.29;41.83;102252.03;5052098;28;20047;-82
2022/10/11 12:44:22;;;;;;;8.90;5.03;;;;;;;15.42;41.54;102244.50;5055893;28;20105;-81
2022/10/11 12:47:14;;;;;;;10.07;5.22;;;;;;;15.51;40.93;102238.16;5055963;28;20044;-83
2022/10/11 12:49:58;;;;;;;9.63;4.80;;;;;;;15.61;40.49;102241.00;5058089;28;20056;-81
2022/10/11 12:52:36;;;;;;;11.23;5.60;;;;;;;15.66;40.28;102234.09;5075562;28;20340;-82
2022/10/11 12:55:37;;;;;;;9.80;4.45;;;;;;;15.71;39.87;102237.31;5060399;28;20105;-82
2022/10/11 12:58:30;;;;;;;9.02;4.03;;;;;;;15.83;39.25;102232.59;5072683;28;20032;-82
2022/10/11 13:01:16;;;;;;;6.88;3.90;;;;;;;15.89;38.82;102230.16;5041537;28;20064;-82
2022/10/11 13:03:48;;;;;;;8.95;3.83;;;;;;;15.96;40.24;102235.13;5053138;28;20042;-82
2022/10/11 13:06:19;;;;;;;7.70;4.05;;;;;;;16.01;39.62;102228.19;5035538;28;20477;-82
2022/10/11 13:08:53;;;;;;;8.50;3.70;;;;;;;16.06;39.14;102228.66;5040051;28;20554;-79
2022/10/11 13:11:24;;;;;;;7.90;3.58;;;;;;;16.12;39.90;102235.50;5043023;28;20048;-79
2022/10/11 13:13:55;;;;;;;6.22;3.50;;;;;;;16.18;38.61;102230.34;5047932;28;20044;-79
2022/10/11 13:16:26;;;;;;;6.80;3.47;;;;;;;16.20;39.70;102233.84;5035121;28;20049;-78
2022/10/11 13:18:56;;;;;;;9.30;3.35;;;;;;;16.25;39.12;102226.00;5056569;28;20041;-79
2022/10/11 13:21:29;;;;;;;7.55;3.15;;;;;;;16.32;38.13;102225.47;5068919;28;20045;-79
2022/10/11 13:24:01;;;;;;;5.80;2.83;;;;;;;16.33;38.47;102225.31;5039064;28;20057;-79
2022/10/11 13:26:31;;;;;;;6.32;3.17;;;;;;;16.36;38.01;102219.53;5046159;28;20097;-80
2022/10/11 13:29:00;;;;;;;6.90;2.67;;;;;;;16.37;38.07;102215.75;5049551;28;20494;-80
2022/10/11 13:31:28;;;;;;;6.10;2.65;;;;;;;16.36;37.46;102218.66;5048467;28;20118;-80
2022/10/11 13:33:58;;;;;;;5.72;2.65;;;;;;;16.37;37.36;102210.22;5047414;28;20063;-79
2022/10/11 13:36:27;;;;;;;7.55;3.45;;;;;;;16.37;37.17;102218.50;5031385;28;20435;-80
2022/10/11 13:38:58;;;;;;;7.53;3.78;;;;;;;16.35;36.47;102219.66;5052817;28;20083;-80
2022/10/11 13:41:27;;;;;;;6.97;3.30;;;;;;;16.32;36.44;102208.91;5033691;28;20047;-80
2022/10/11 13:43:57;;;;;;;7.45;3.10;;;;;;;16.29;36.40;102203.66;5066669;28;20049;-80
2022/10/11 13:46:27;;;;;;;6.00;3.08;;;;;;;16.26;36.04;102211.19;5054709;28;20164;-80
2022/10/11 13:49:01;;;;;;;5.72;3.28;;;;;;;16.23;35.70;102207.84;5035201;28;20056;-80
2022/10/11 13:51:33;;;;;;;6.25;3.38;;;;;;;16.18;35.92;102204.59;5051043;28;20051;-80
2022/10/11 13:54:03;;;;;;;7.35;2.95;;;;;;;16.12;36.78;102205.13;5046763;28;20099;-80
2022/10/11 13:56:34;;;;;;;7.40;3.45;;;;;;;16.10;36.50;102198.88;5052789;28;20131;-81
2022/10/11 13:59:02;;;;;;;6.60;3.65;;;;;;;16.04;36.66;102191.13;5048052;28;20144;-80
2022/10/11 14:01:39;;;;;;;6.60;3.20;;;;;;;16.04;35.51;102200.31;5063918;28;20462;-81
2022/10/11 14:04:10;;;;;;;6.65;2.97;;;;;;;15.99;36.25;102191.56;5064704;28;20469;-80
2022/10/11 14:06:46;;;;;;;6.40;3.30;;;;;;;15.98;35.16;102191.69;5067905;22;20036;-80
2022/10/11 14:09:20;;;;;;;7.45;3.15;;;;;;;15.95;35.52;102184.56;5075254;28;20081;-80